CheckWX is a tool to help pilots better visualize weather data.  It is not intended as a substitute for an official pre-flight weather briefing.

08:23:49 UTC

UAOO METAR
Kzyl-Orda Southwest Airport
Kzyl-Orda, Kazakhstan
Current

24 mins ago

UAOO 250800Z 16007MPS CAVOK 14/06 Q1015 R05/CLRD70 NOSIG RMK QFE749/0999
Observed
Feb-25 @ 08:00 UTC
Wind
  • 160° at 14 KTS
Visibility
10,000+ meters
Flight Rules
VFR
Cloud Levels
  • Clear skies
Temperature
14°C / 57°F
Dewpoint
C / 43°F
Humidity
59%
Altimeter
29.97" Hg
Pressure
1014.92 hPa
Previous

54 mins ago

UAOO 250730Z 15006MPS CAVOK 13/06 Q1015 R05/CLRD70 NOSIG RMK QFE750/1000
Observed
Feb-25 @ 07:30 UTC
Wind
  • 150° at 12 KTS
Visibility
10,000+ meters
Flight Rules
VFR
Cloud Levels
  • Clear skies
Temperature
13°C / 55°F
Dewpoint
C / 43°F
Humidity
63%
Altimeter
29.97" Hg
Pressure
1014.92 hPa
Previous

1 hour ago

UAOO 250700Z 15007MPS CAVOK 11/06 Q1016 R05/CLRD70 NOSIG RMK QFE750/1000
Observed
Feb-25 @ 07:00 UTC
Wind
  • 150° at 14 KTS
Visibility
10,000+ meters
Flight Rules
VFR
Cloud Levels
  • Clear skies
Temperature
11°C / 52°F
Dewpoint
C / 43°F
Humidity
72%
Altimeter
30" Hg
Pressure
1015.92 hPa